sensor_id;sensor_type;location;lat;lon;timestamp;temperature;humidity
51908;DHT22;39320;53.214;6.556;2023-04-01T00:00:44;11.10;99.90
51908;DHT22;39320;53.214;6.556;2023-04-01T00:03:11;11.20;99.90
51908;DHT22;39320;53.214;6.556;2023-04-01T00:05:37;11.10;99.90
51908;DHT22;39320;53.214;6.556;2023-04-01T00:08:03;11.10;99.90
51908;DHT22;39320;53.214;6.556;2023-04-01T00:10:28;11.10;99.90
51908;DHT22;39320;53.214;6.556;2023-04-01T00:12:57;11.10;99.90
51908;DHT22;39320;53.214;6.556;2023-04-01T00:15:23;11.20;99.90
51908;DHT22;39320;53.214;6.556;2023-04-01T00:17:48;11.10;99.90
51908;DHT22;39320;53.214;6.556;2023-04-01T00:20:15;11.20;99.90
51908;DHT22;39320;53.214;6.556;2023-04-01T00:22:41;11.20;99.90
51908;DHT22;39320;53.214;6.556;2023-04-01T00:25:07;11.10;99.90
51908;DHT22;39320;53.214;6.556;2023-04-01T00:27:33;11.20;99.90
51908;DHT22;39320;53.214;6.556;2023-04-01T00:29:59;11.20;99.90
51908;DHT22;39320;53.214;6.556;2023-04-01T00:32:25;11.20;99.90
51908;DHT22;39320;53.214;6.556;2023-04-01T00:34:52;11.10;99.90
51908;DHT22;39320;53.214;6.556;2023-04-01T00:37:19;11.10;99.90
51908;DHT22;39320;53.214;6.556;2023-04-01T00:39:46;11.10;99.90
51908;DHT22;39320;53.214;6.556;2023-04-01T00:42:13;11.10;99.90
51908;DHT22;39320;53.214;6.556;2023-04-01T00:44:39;11.10;99.90
51908;DHT22;39320;53.214;6.556;2023-04-01T00:47:05;11.10;99.90
51908;DHT22;39320;53.214;6.556;2023-04-01T00:49:37;11.20;99.90
51908;DHT22;39320;53.214;6.556;2023-04-01T00:52:05;11.10;99.90
51908;DHT22;39320;53.214;6.556;2023-04-01T00:54:32;11.20;99.90
51908;DHT22;39320;53.214;6.556;2023-04-01T00:59:48;11.10;99.90
51908;DHT22;39320;53.214;6.556;2023-04-01T01:02:17;11.10;99.90
51908;DHT22;39320;53.214;6.556;2023-04-01T01:04:44;11.10;99.90
51908;DHT22;39320;53.214;6.556;2023-04-01T01:15:28;11.10;99.90
51908;DHT22;39320;53.214;6.556;2023-04-01T01:26:18;11.10;99.90
51908;DHT22;39320;53.214;6.556;2023-04-01T01:34:45;11.10;99.90
51908;DHT22;39320;53.214;6.556;2023-04-01T01:37:15;11.10;99.90
51908;DHT22;39320;53.214;6.556;2023-04-01T01:39:48;11.10;99.90
51908;DHT22;39320;53.214;6.556;2023-04-01T01:42:17;11.10;99.90
51908;DHT22;39320;53.214;6.556;2023-04-01T01:44:46;11.10;99.90
51908;DHT22;39320;53.214;6.556;2023-04-01T01:47:13;11.00;99.90
51908;DHT22;39320;53.214;6.556;2023-04-01T01:49:41;11.00;99.90
51908;DHT22;39320;53.214;6.556;2023-04-01T01:52:07;11.00;99.90
51908;DHT22;39320;53.214;6.556;2023-04-01T01:54:33;11.00;99.90
51908;DHT22;39320;53.214;6.556;2023-04-01T01:57:09;11.10;99.90
51908;DHT22;39320;53.214;6.556;2023-04-01T01:59:37;11.10;99.90
51908;DHT22;39320;53.214;6.556;2023-04-01T02:02:06;11.00;99.90
51908;DHT22;39320;53.214;6.556;2023-04-01T02:04:42;11.10;99.90
51908;DHT22;39320;53.214;6.556;2023-04-01T02:07:30;11.10;99.90
51908;DHT22;39320;53.214;6.556;2023-04-01T02:09:55;11.00;99.90
51908;DHT22;39320;53.214;6.556;2023-04-01T02:12:24;11.00;99.90
51908;DHT22;39320;53.214;6.556;2023-04-01T02:17:24;11.00;99.90
51908;DHT22;39320;53.214;6.556;2023-04-01T02:19:53;11.00;99.90
51908;DHT22;39320;53.214;6.556;2023-04-01T02:22:41;11.00;99.90
51908;DHT22;39320;53.214;6.556;2023-04-01T02:25:12;11.00;99.90
51908;DHT22;39320;53.214;6.556;2023-04-01T02:27:40;11.00;99.90
51908;DHT22;39320;53.214;6.556;2023-04-01T02:30:07;11.00;99.90
51908;DHT22;39320;53.214;6.556;2023-04-01T02:32:35;11.00;99.90
51908;DHT22;39320;53.214;6.556;2023-04-01T02:35:10;11.00;99.90
51908;DHT22;39320;53.214;6.556;2023-04-01T02:37:37;10.90;99.90
51908;DHT22;39320;53.214;6.556;2023-04-01T02:40:06;10.90;99.90
51908;DHT22;39320;53.214;6.556;2023-04-01T02:42:33;10.90;99.90
51908;DHT22;39320;53.214;6.556;2023-04-01T02:44:59;11.00;99.90
51908;DHT22;39320;53.214;6.556;2023-04-01T02:47:27;11.00;99.90
51908;DHT22;39320;53.214;6.556;2023-04-01T02:49:53;11.00;99.90
51908;DHT22;39320;53.214;6.556;2023-04-01T02:52:28;11.00;99.90
51908;DHT22;39320;53.214;6.556;2023-04-01T02:54:54;11.00;99.90
51908;DHT22;39320;53.214;6.556;2023-04-01T02:57:21;11.00;99.90
51908;DHT22;39320;53.214;6.556;2023-04-01T02:59:47;11.00;99.90
51908;DHT22;39320;53.214;6.556;2023-04-01T03:02:14;11.00;99.90
51908;DHT22;39320;53.214;6.556;2023-04-01T03:04:40;11.00;99.90
51908;DHT22;39320;53.214;6.556;2023-04-01T03:07:05;11.00;99.90
51908;DHT22;39320;53.214;6.556;2023-04-01T03:09:32;11.00;99.90
51908;DHT22;39320;53.214;6.556;2023-04-01T03:11:58;11.00;99.90
51908;DHT22;39320;53.214;6.556;2023-04-01T03:14:23;10.90;99.90
51908;DHT22;39320;53.214;6.556;2023-04-01T03:16:49;11.00;99.90
51908;DHT22;39320;53.214;6.556;2023-04-01T03:19:15;11.00;99.90
51908;DHT22;39320;53.214;6.556;2023-04-01T03:21:41;10.90;99.90
51908;DHT22;39320;53.214;6.556;2023-04-01T03:24:07;11.00;99.90
51908;DHT22;39320;53.214;6.556;2023-04-01T03:26:33;11.00;99.90
51908;DHT22;39320;53.214;6.556;2023-04-01T03:28:59;10.90;99.90
51908;DHT22;39320;53.214;6.556;2023-04-01T03:31:25;11.00;99.90
51908;DHT22;39320;53.214;6.556;2023-04-01T03:33:51;11.00;99.90
51908;DHT22;39320;53.214;6.556;2023-04-01T03:36:17;10.90;99.90
51908;DHT22;39320;53.214;6.556;2023-04-01T03:38:44;10.90;99.90
51908;DHT22;39320;53.214;6.556;2023-04-01T03:41:17;10.90;99.90
51908;DHT22;39320;53.214;6.556;2023-04-01T03:43:44;10.90;99.90
51908;DHT22;39320;53.214;6.556;2023-04-01T03:46:10;10.90;99.90
51908;DHT22;39320;53.214;6.556;2023-04-01T03:48:36;10.90;99.90
51908;DHT22;39320;53.214;6.556;2023-04-01T03:51:07;10.90;99.90
51908;DHT22;39320;53.214;6.556;2023-04-01T03:53:33;10.90;99.90
51908;DHT22;39320;53.214;6.556;2023-04-01T03:55:58;10.90;99.90
51908;DHT22;39320;53.214;6.556;2023-04-01T03:58:28;10.80;99.90
51908;DHT22;39320;53.214;6.556;2023-04-01T04:00:54;10.90;99.90
51908;DHT22;39320;53.214;6.556;2023-04-01T04:03:20;10.90;99.90
51908;DHT22;39320;53.214;6.556;2023-04-01T04:05:47;10.90;99.90
51908;DHT22;39320;53.214;6.556;2023-04-01T04:08:13;10.90;99.90
51908;DHT22;39320;53.214;6.556;2023-04-01T04:10:39;10.90;99.90
51908;DHT22;39320;53.214;6.556;2023-04-01T04:13:06;10.90;99.90
51908;DHT22;39320;53.214;6.556;2023-04-01T04:15:32;10.90;99.90
51908;DHT22;39320;53.214;6.556;2023-04-01T04:17:58;10.90;99.90
51908;DHT22;39320;53.214;6.556;2023-04-01T04:20:24;10.90;99.90
51908;DHT22;39320;53.214;6.556;2023-04-01T04:22:49;10.90;99.90
51908;DHT22;39320;53.214;6.556;2023-04-01T04:25:15;10.90;99.90
51908;DHT22;39320;53.214;6.556;2023-04-01T04:27:41;10.90;99.90
51908;DHT22;39320;53.214;6.556;2023-04-01T04:30:08;10.90;99.90
51908;DHT22;39320;53.214;6.556;2023-04-01T04:32:34;10.90;99.90
51908;DHT22;39320;53.214;6.556;2023-04-01T04:35:00;10.90;99.90
51908;DHT22;39320;53.214;6.556;2023-04-01T04:37:27;10.90;99.90
51908;DHT22;39320;53.214;6.556;2023-04-01T04:39:53;10.90;99.90
51908;DHT22;39320;53.214;6.556;2023-04-01T04:42:18;10.90;99.90
51908;DHT22;39320;53.214;6.556;2023-04-01T04:44:44;10.90;99.90
51908;DHT22;39320;53.214;6.556;2023-04-01T04:47:10;10.90;99.90
51908;DHT22;39320;53.214;6.556;2023-04-01T04:49:36;10.90;99.90
51908;DHT22;39320;53.214;6.556;2023-04-01T04:52:01;10.90;99.90
51908;DHT22;39320;53.214;6.556;2023-04-01T04:54:29;10.90;99.90
51908;DHT22;39320;53.214;6.556;2023-04-01T04:56:57;10.90;99.90
51908;DHT22;39320;53.214;6.556;2023-04-01T04:59:23;10.90;99.90
51908;DHT22;39320;53.214;6.556;2023-04-01T05:01:49;10.90;99.90
51908;DHT22;39320;53.214;6.556;2023-04-01T05:04:15;10.90;99.90
51908;DHT22;39320;53.214;6.556;2023-04-01T05:06:43;10.90;99.90
51908;DHT22;39320;53.214;6.556;2023-04-01T05:09:10;10.90;99.90
51908;DHT22;39320;53.214;6.556;2023-04-01T05:11:37;10.90;99.90
51908;DHT22;39320;53.214;6.556;2023-04-01T05:14:03;10.90;99.90
51908;DHT22;39320;53.214;6.556;2023-04-01T05:16:31;10.90;99.90
51908;DHT22;39320;53.214;6.556;2023-04-01T05:18:56;10.90;99.90
51908;DHT22;39320;53.214;6.556;2023-04-01T05:21:22;10.90;99.90
51908;DHT22;39320;53.214;6.556;2023-04-01T05:23:48;10.90;99.90
51908;DHT22;39320;53.214;6.556;2023-04-01T05:26:15;10.90;99.90
51908;DHT22;39320;53.214;6.556;2023-04-01T05:28:41;10.90;99.90
51908;DHT22;39320;53.214;6.556;2023-04-01T05:31:07;10.90;99.90
51908;DHT22;39320;53.214;6.556;2023-04-01T05:33:33;10.90;99.90
51908;DHT22;39320;53.214;6.556;2023-04-01T05:36:09;10.80;99.90
51908;DHT22;39320;53.214;6.556;2023-04-01T05:38:36;10.80;99.90
51908;DHT22;39320;53.214;6.556;2023-04-01T05:41:02;10.80;99.90
51908;DHT22;39320;53.214;6.556;2023-04-01T05:43:28;10.90;99.90
51908;DHT22;39320;53.214;6.556;2023-04-01T05:45:57;10.90;99.90
51908;DHT22;39320;53.214;6.556;2023-04-01T05:48:23;10.90;99.90
51908;DHT22;39320;53.214;6.556;2023-04-01T05:50:49;10.80;99.90
51908;DHT22;39320;53.214;6.556;2023-04-01T05:53:15;10.80;99.90
51908;DHT22;39320;53.214;6.556;2023-04-01T05:55:40;10.80;99.90
51908;DHT22;39320;53.214;6.556;2023-04-01T05:58:06;10.80;99.90
51908;DHT22;39320;53.214;6.556;2023-04-01T06:00:32;10.80;99.90
51908;DHT22;39320;53.214;6.556;2023-04-01T06:02:59;10.80;99.90
51908;DHT22;39320;53.214;6.556;2023-04-01T06:05:28;10.80;99.90
51908;DHT22;39320;53.214;6.556;2023-04-01T06:07:58;10.80;99.90
51908;DHT22;39320;53.214;6.556;2023-04-01T06:10:50;10.90;99.90
51908;DHT22;39320;53.214;6.556;2023-04-01T06:18:48;10.80;99.90
51908;DHT22;39320;53.214;6.556;2023-04-01T06:21:57;10.80;99.90
51908;DHT22;39320;53.214;6.556;2023-04-01T06:30:03;10.80;99.90
51908;DHT22;39320;53.214;6.556;2023-04-01T06:32:41;10.80;99.90
51908;DHT22;39320;53.214;6.556;2023-04-01T06:40:56;10.90;99.90
51908;DHT22;39320;53.214;6.556;2023-04-01T06:46:19;10.90;99.90
51908;DHT22;39320;53.214;6.556;2023-04-01T06:49:24;10.90;99.90
51908;DHT22;39320;53.214;6.556;2023-04-01T06:54:35;10.90;99.90
51908;DHT22;39320;53.214;6.556;2023-04-01T06:59:47;10.90;99.90
51908;DHT22;39320;53.214;6.556;2023-04-01T07:02:32;10.90;99.90
51908;DHT22;39320;53.214;6.556;2023-04-01T07:05:00;11.00;99.90
51908;DHT22;39320;53.214;6.556;2023-04-01T07:07:39;11.00;99.90
51908;DHT22;39320;53.214;6.556;2023-04-01T07:10:22;11.00;99.90
51908;DHT22;39320;53.214;6.556;2023-04-01T07:12:55;11.00;99.90
51908;DHT22;39320;53.214;6.556;2023-04-01T07:15:46;11.00;99.90
51908;DHT22;39320;53.214;6.556;2023-04-01T07:18:19;11.00;99.90
51908;DHT22;39320;53.214;6.556;2023-04-01T07:20:46;11.00;99.90
51908;DHT22;39320;53.214;6.556;2023-04-01T07:23:23;11.00;99.90
51908;DHT22;39320;53.214;6.556;2023-04-01T07:26:00;11.00;99.90
51908;DHT22;39320;53.214;6.556;2023-04-01T07:28:32;11.00;99.90
51908;DHT22;39320;53.214;6.556;2023-04-01T07:37:00;11.10;99.90
51908;DHT22;39320;53.214;6.556;2023-04-01T07:42:24;11.10;99.90
51908;DHT22;39320;53.214;6.556;2023-04-01T07:50:29;11.10;99.90
51908;DHT22;39320;53.214;6.556;2023-04-01T07:59:16;11.10;99.90
51908;DHT22;39320;53.214;6.556;2023-04-01T08:05:00;11.20;99.90
51908;DHT22;39320;53.214;6.556;2023-04-01T08:07:58;11.20;99.90
51908;DHT22;39320;53.214;6.556;2023-04-01T08:13:47;11.20;99.90
51908;DHT22;39320;53.214;6.556;2023-04-01T08:16:38;11.20;99.90
51908;DHT22;39320;53.214;6.556;2023-04-01T08:19:30;11.20;99.90
51908;DHT22;39320;53.214;6.556;2023-04-01T08:22:02;11.30;99.90
51908;DHT22;39320;53.214;6.556;2023-04-01T08:26:59;11.30;99.90
51908;DHT22;39320;53.214;6.556;2023-04-01T08:32:13;11.30;99.90
51908;DHT22;39320;53.214;6.556;2023-04-01T08:34:45;11.30;99.90
51908;DHT22;39320;53.214;6.556;2023-04-01T08:37:17;11.40;99.90
51908;DHT22;39320;53.214;6.556;2023-04-01T08:39:54;11.40;99.90
51908;DHT22;39320;53.214;6.556;2023-04-01T08:42:50;11.40;99.90
51908;DHT22;39320;53.214;6.556;2023-04-01T08:50:58;11.50;99.90
51908;DHT22;39320;53.214;6.556;2023-04-01T08:54:37;11.50;99.90
51908;DHT22;39320;53.214;6.556;2023-04-01T09:04:23;11.30;99.90
51908;DHT22;39320;53.214;6.556;2023-04-01T09:12:31;11.00;99.90
51908;DHT22;39320;53.214;6.556;2023-04-01T09:40:59;10.70;99.90
51908;DHT22;39320;53.214;6.556;2023-04-01T10:14:07;10.60;99.90
51908;DHT22;39320;53.214;6.556;2023-04-01T10:16:58;10.70;99.90
51908;DHT22;39320;53.214;6.556;2023-04-01T10:50:23;10.60;99.90
51908;DHT22;39320;53.214;6.556;2023-04-01T10:53:14;10.50;99.90
51908;DHT22;39320;53.214;6.556;2023-04-01T10:56:12;10.50;99.90
51908;DHT22;39320;53.214;6.556;2023-04-01T10:59:15;10.50;99.90
51908;DHT22;39320;53.214;6.556;2023-04-01T11:37:16;10.40;99.90
51908;DHT22;39320;53.214;6.556;2023-04-01T11:42:43;10.40;99.90
51908;DHT22;39320;53.214;6.556;2023-04-01T11:48:07;10.40;99.90
51908;DHT22;39320;53.214;6.556;2023-04-01T11:50:53;10.50;99.90
51908;DHT22;39320;53.214;6.556;2023-04-01T11:53:31;10.40;99.90
51908;DHT22;39320;53.214;6.556;2023-04-01T12:04:47;10.50;99.90
51908;DHT22;39320;53.214;6.556;2023-04-01T12:13:47;10.90;99.90
51908;DHT22;39320;53.214;6.556;2023-04-01T12:16:37;11.10;99.90
51908;DHT22;39320;53.214;6.556;2023-04-01T12:19:20;11.30;99.90
51908;DHT22;39320;53.214;6.556;2023-04-01T12:22:23;11.20;99.90
51908;DHT22;39320;53.214;6.556;2023-04-01T12:25:22;11.40;99.90
51908;DHT22;39320;53.214;6.556;2023-04-01T12:39:06;11.60;99.90
51908;DHT22;39320;53.214;6.556;2023-04-01T12:41:42;11.70;99.90
51908;DHT22;39320;53.214;6.556;2023-04-01T12:55:40;10.90;99.90
51908;DHT22;39320;53.214;6.556;2023-04-01T12:58:37;10.80;99.90
51908;DHT22;39320;53.214;6.556;2023-04-01T13:07:16;10.60;99.90
51908;DHT22;39320;53.214;6.556;2023-04-01T13:15:43;10.50;99.90
51908;DHT22;39320;53.214;6.556;2023-04-01T13:29:20;10.90;99.90
51908;DHT22;39320;53.214;6.556;2023-04-01T13:31:58;10.50;99.90
51908;DHT22;39320;53.214;6.556;2023-04-01T13:43:35;10.50;99.90
51908;DHT22;39320;53.214;6.556;2023-04-01T13:57:12;10.50;99.90
51908;DHT22;39320;53.214;6.556;2023-04-01T13:59:50;10.40;99.90
51908;DHT22;39320;53.214;6.556;2023-04-01T14:02:49;10.40;99.90
51908;DHT22;39320;53.214;6.556;2023-04-01T14:20:13;10.10;99.90
51908;DHT22;39320;53.214;6.556;2023-04-01T14:31:23;10.10;99.90
51908;DHT22;39320;53.214;6.556;2023-04-01T14:34:06;10.10;99.90
51908;DHT22;39320;53.214;6.556;2023-04-01T14:36:48;10.10;99.90
51908;DHT22;39320;53.214;6.556;2023-04-01T14:39:55;10.10;99.90
51908;DHT22;39320;53.214;6.556;2023-04-01T14:48:03;10.00;99.90
51908;DHT22;39320;53.214;6.556;2023-04-01T14:50:45;10.00;99.90
51908;DHT22;39320;53.214;6.556;2023-04-01T14:56:03;9.90;99.90
51908;DHT22;39320;53.214;6.556;2023-04-01T14:58:52;9.90;99.90
51908;DHT22;39320;53.214;6.556;2023-04-01T15:01:50;9.80;99.90
51908;DHT22;39320;53.214;6.556;2023-04-01T15:04:50;9.80;99.90
51908;DHT22;39320;53.214;6.556;2023-04-01T15:07:20;9.80;99.90
51908;DHT22;39320;53.214;6.556;2023-04-01T15:18:08;9.70;99.90
51908;DHT22;39320;53.214;6.556;2023-04-01T15:21:00;9.70;99.90
51908;DHT22;39320;53.214;6.556;2023-04-01T15:31:53;9.70;99.90
51908;DHT22;39320;53.214;6.556;2023-04-01T15:34:26;9.60;99.90
51908;DHT22;39320;53.214;6.556;2023-04-01T15:39:59;9.60;99.90
51908;DHT22;39320;53.214;6.556;2023-04-01T15:47:42;9.60;99.90
51908;DHT22;39320;53.214;6.556;2023-04-01T16:02:15;9.40;99.90
51908;DHT22;39320;53.214;6.556;2023-04-01T16:04:58;9.40;99.90
51908;DHT22;39320;53.214;6.556;2023-04-01T16:21:49;9.20;99.90
51908;DHT22;39320;53.214;6.556;2023-04-01T16:24:46;9.20;99.90
51908;DHT22;39320;53.214;6.556;2023-04-01T16:27:40;9.20;99.90
51908;DHT22;39320;53.214;6.556;2023-04-01T16:33:10;9.10;99.90
51908;DHT22;39320;53.214;6.556;2023-04-01T16:43:29;9.10;99.90
51908;DHT22;39320;53.214;6.556;2023-04-01T16:47:20;9.10;99.90
51908;DHT22;39320;53.214;6.556;2023-04-01T16:59:47;9.00;99.90
51908;DHT22;39320;53.214;6.556;2023-04-01T17:02:28;9.00;99.90
51908;DHT22;39320;53.214;6.556;2023-04-01T17:05:08;8.90;99.90
51908;DHT22;39320;53.214;6.556;2023-04-01T17:10:37;8.80;99.90
51908;DHT22;39320;53.214;6.556;2023-04-01T17:15:44;8.90;99.90
51908;DHT22;39320;53.214;6.556;2023-04-01T17:21:07;8.80;99.90
51908;DHT22;39320;53.214;6.556;2023-04-01T17:23:37;8.80;99.90
51908;DHT22;39320;53.214;6.556;2023-04-01T17:29:17;8.80;99.90
51908;DHT22;39320;53.214;6.556;2023-04-01T17:31:53;8.80;99.90
51908;DHT22;39320;53.214;6.556;2023-04-01T17:34:52;8.80;99.90
51908;DHT22;39320;53.214;6.556;2023-04-01T17:37:45;8.80;99.90
51908;DHT22;39320;53.214;6.556;2023-04-01T17:45:53;8.70;99.90
51908;DHT22;39320;53.214;6.556;2023-04-01T17:48:46;8.70;99.90
51908;DHT22;39320;53.214;6.556;2023-04-01T17:51:35;8.70;99.90
51908;DHT22;39320;53.214;6.556;2023-04-01T17:56:58;8.70;99.90
51908;DHT22;39320;53.214;6.556;2023-04-01T18:00:14;8.80;99.90
51908;DHT22;39320;53.214;6.556;2023-04-01T18:02:44;8.70;99.90
51908;DHT22;39320;53.214;6.556;2023-04-01T18:05:30;8.70;99.90
51908;DHT22;39320;53.214;6.556;2023-04-01T18:08:12;8.70;99.90
51908;DHT22;39320;53.214;6.556;2023-04-01T18:10:46;8.70;99.90
51908;DHT22;39320;53.214;6.556;2023-04-01T18:13:19;8.70;99.90
51908;DHT22;39320;53.214;6.556;2023-04-01T18:21:52;8.70;99.90
51908;DHT22;39320;53.214;6.556;2023-04-01T18:24:30;8.70;99.90
51908;DHT22;39320;53.214;6.556;2023-04-01T18:27:24;8.70;99.90
51908;DHT22;39320;53.214;6.556;2023-04-01T18:38:00;8.50;99.90
51908;DHT22;39320;53.214;6.556;2023-04-01T18:46:49;8.30;99.90
51908;DHT22;39320;53.214;6.556;2023-04-01T18:54:30;8.30;99.90
51908;DHT22;39320;53.214;6.556;2023-04-01T18:57:12;8.30;99.90
51908;DHT22;39320;53.214;6.556;2023-04-01T19:00:04;8.30;99.90
51908;DHT22;39320;53.214;6.556;2023-04-01T19:02:40;8.40;99.90
51908;DHT22;39320;53.214;6.556;2023-04-01T19:05:19;8.30;99.90
51908;DHT22;39320;53.214;6.556;2023-04-01T19:07:56;8.30;99.90
51908;DHT22;39320;53.214;6.556;2023-04-01T19:13:32;8.30;99.90
51908;DHT22;39320;53.214;6.556;2023-04-01T19:16:50;8.30;99.90
51908;DHT22;39320;53.214;6.556;2023-04-01T19:25:26;8.10;99.90
51908;DHT22;39320;53.214;6.556;2023-04-01T19:27:42;8.00;99.90
51908;DHT22;39320;53.214;6.556;2023-04-01T19:30:39;8.00;99.90
51908;DHT22;39320;53.214;6.556;2023-04-01T19:38:50;7.90;99.90
51908;DHT22;39320;53.214;6.556;2023-04-01T19:46:43;7.80;99.90
51908;DHT22;39320;53.214;6.556;2023-04-01T19:52:14;7.90;99.90
51908;DHT22;39320;53.214;6.556;2023-04-01T19:58:00;8.00;99.90
51908;DHT22;39320;53.214;6.556;2023-04-01T20:00:40;8.00;99.90
51908;DHT22;39320;53.214;6.556;2023-04-01T20:06:38;8.00;99.90
51908;DHT22;39320;53.214;6.556;2023-04-01T20:17:56;7.90;99.90
51908;DHT22;39320;53.214;6.556;2023-04-01T20:26:02;7.90;99.90
51908;DHT22;39320;53.214;6.556;2023-04-01T20:31:01;7.90;99.90
51908;DHT22;39320;53.214;6.556;2023-04-01T20:37:23;7.80;99.90
51908;DHT22;39320;53.214;6.556;2023-04-01T20:51:06;7.80;99.90
51908;DHT22;39320;53.214;6.556;2023-04-01T20:56:37;7.90;99.90
51908;DHT22;39320;53.214;6.556;2023-04-01T21:02:00;7.80;99.90
51908;DHT22;39320;53.214;6.556;2023-04-01T21:07:50;7.70;99.90
51908;DHT22;39320;53.214;6.556;2023-04-01T21:11:00;7.60;99.90
51908;DHT22;39320;53.214;6.556;2023-04-01T21:13:59;7.60;99.90
51908;DHT22;39320;53.214;6.556;2023-04-01T21:16:36;7.60;99.90
51908;DHT22;39320;53.214;6.556;2023-04-01T21:22:19;7.70;99.90
51908;DHT22;39320;53.214;6.556;2023-04-01T21:36:33;7.40;99.90
51908;DHT22;39320;53.214;6.556;2023-04-01T21:39:26;7.40;99.90
51908;DHT22;39320;53.214;6.556;2023-04-01T21:45:02;7.30;99.90
51908;DHT22;39320;53.214;6.556;2023-04-01T21:56:09;7.30;99.90
51908;DHT22;39320;53.214;6.556;2023-04-01T22:07:43;7.30;99.90
51908;DHT22;39320;53.214;6.556;2023-04-01T22:10:27;7.20;99.90
51908;DHT22;39320;53.214;6.556;2023-04-01T22:18:32;7.40;99.90
51908;DHT22;39320;53.214;6.556;2023-04-01T22:27:28;7.30;99.90
51908;DHT22;39320;53.214;6.556;2023-04-01T22:35:21;7.30;99.90
51908;DHT22;39320;53.214;6.556;2023-04-01T22:40:35;7.20;99.90
51908;DHT22;39320;53.214;6.556;2023-04-01T22:43:12;7.20;99.90
51908;DHT22;39320;53.214;6.556;2023-04-01T22:48:33;7.10;99.90
51908;DHT22;39320;53.214;6.556;2023-04-01T22:56:27;7.10;99.90
51908;DHT22;39320;53.214;6.556;2023-04-01T22:59:08;7.10;99.90
51908;DHT22;39320;53.214;6.556;2023-04-01T23:01:44;7.10;99.90
51908;DHT22;39320;53.214;6.556;2023-04-01T23:04:16;7.10;99.90
51908;DHT22;39320;53.214;6.556;2023-04-01T23:06:48;7.00;99.90
51908;DHT22;39320;53.214;6.556;2023-04-01T23:09:31;7.10;99.90
51908;DHT22;39320;53.214;6.556;2023-04-01T23:12:05;6.90;99.90
51908;DHT22;39320;53.214;6.556;2023-04-01T23:15:12;7.00;99.90
51908;DHT22;39320;53.214;6.556;2023-04-01T23:26:29;6.90;99.90
51908;DHT22;39320;53.214;6.556;2023-04-01T23:28:58;6.80;99.90
51908;DHT22;39320;53.214;6.556;2023-04-01T23:33:59;6.80;99.90
51908;DHT22;39320;53.214;6.556;2023-04-01T23:36:27;6.70;99.90
51908;DHT22;39320;53.214;6.556;2023-04-01T23:38:53;6.70;99.90
51908;DHT22;39320;53.214;6.556;2023-04-01T23:41:25;6.80;99.90
51908;DHT22;39320;53.214;6.556;2023-04-01T23:44:13;6.70;99.90
51908;DHT22;39320;53.214;6.556;2023-04-01T23:46:40;6.70;99.90
51908;DHT22;39320;53.214;6.556;2023-04-01T23:49:19;6.70;99.90
51908;DHT22;39320;53.214;6.556;2023-04-01T23:51:52;6.70;99.90
51908;DHT22;39320;53.214;6.556;2023-04-01T23:56:55;6.70;99.90
51908;DHT22;39320;53.214;6.556;2023-04-01T23:59:33;6.60;99.90
